Latest Weather Observations for Learmonth

IDW60801

Issued at 3:04 pm WST Tuesday 23 May 2017 (issued every 30 minutes, with the page automatically refreshed every 10 minutes)

About weather observations | Map of weather stations | Latest weather observations for WA | Other Formats
Station Details ID: 005007 Name: LEARMONTH AIRPORT Lat: -22.24 Lon: 114.10 Height: 5.0 m
Data from the previous 72 hours. | See also: Recent months at Learmonth
Date/Time
WST
Temp
°C
App
Temp
°C
Dew
Point
°C
Rel
Hum
%
Delta-T
°C
Wind Press
QNH
hPa
Press
MSL
hPa
Rain since
9am
mm
Dir  Spd
km/h
Gust
km/h
Spd
kts
Gust
kts
23/03:00pm 29.0 24.4 3.8 20 12.8 E 17 20 9 11 1014.3 1014.2 0.0
23/02:30pm 29.6 25.5 4.3 20 13.0 E 15 20 8 11 1014.4 - 0.0
23/02:00pm 29.3 25.1 1.7 17 13.5 SE 13 19 7 10 1014.7 - 0.0
23/01:30pm 28.6 24.3 3.5 20 12.6 SSE 15 22 8 12 1015.1 - 0.0
23/01:00pm 26.8 23.4 5.7 26 10.9 E 13 17 7 9 1015.9 - 0.0
23/12:30pm 26.4 23.1 6.4 28 10.4 E 13 19 7 10 1016.6 - 0.0
23/12:00pm 25.0 21.4 6.7 31 9.5 E 15 19 8 10 1017.3 1017.2 0.0
23/11:30am 24.9 21.8 7.1 32 9.3 ESE 13 19 7 10 1017.7 - 0.0
23/11:00am 24.4 21.3 7.1 33 9.0 SE 13 17 7 9 1018.2 - 0.0
23/10:30am 23.9 20.3 6.7 33 8.9 SE 15 22 8 12 1018.5 - 0.0
23/10:00am 23.2 19.9 6.5 34 8.6 SE 13 20 7 11 1018.7 - 0.0
23/09:30am 22.2 19.3 6.4 36 8.0 SSE 11 17 6 9 1019.1 - 0.0
23/09:00am 20.7 17.0 6.3 39 7.2 S 15 19 8 10 1019.1 1019.0 0.0
23/08:30am 19.0 15.5 5.5 41 6.6 S 13 19 7 10 1019.1 - 0.0
23/08:00am 17.5 13.5 5.1 44 5.9 SSW 15 19 8 10 1018.7 - 0.0
23/07:30am 15.5 11.9 4.8 49 5.0 SW 13 15 7 8 1018.5 - 0.0
23/07:00am 13.9 10.3 4.8 54 4.2 SW 13 17 7 9 1018.3 - 0.0
23/06:30am 14.1 10.1 4.7 53 4.4 SW 15 17 8 9 1018.0 - 0.0
23/06:00am 14.6 10.6 5.1 53 4.4 WSW 15 19 8 10 1017.7 1017.6 0.0
23/05:30am 13.9 10.3 4.8 54 4.2 WSW 13 17 7 9 1017.4 - 0.0
23/05:00am 15.0 11.1 5.2 52 4.6 SW 15 17 8 9 1017.3 - 0.0
23/04:30am 14.8 10.9 5.3 53 4.5 SW 15 17 8 9 1017.3 - 0.0
23/04:00am 14.7 10.8 5.5 54 4.4 SW 15 15 8 8 1017.2 - 0.0
23/03:30am 14.3 10.5 5.9 57 4.0 SW 15 17 8 9 1017.2 - 0.0
23/03:00am 13.8 9.9 5.4 57 3.9 SW 15 17 8 9 1017.4 1017.3 0.0
23/02:30am 14.6 11.1 5.4 54 4.3 SW 13 17 7 9 1017.5 - 0.0
23/02:00am 15.2 11.0 5.7 53 4.5 SW 17 19 9 10 1017.8 - 0.0
23/01:30am 15.6 11.4 5.8 52 4.7 SSW 17 20 9 11 1017.8 - 0.0
23/01:00am 16.5 12.3 5.8 49 5.2 SSW 17 19 9 10 1017.9 - 0.0
23/12:30am 17.3 13.1 5.9 47 5.5 S 17 20 9 11 1017.9 - 0.0
23/12:00am 17.0 12.9 6.2 49 5.3 SSW 17 20 9 11 1018.0 1017.9 0.0
 
Date/Time
WST
Temp
°C
App
Temp
°C
Dew
Point
°C
Rel
Hum
%
Delta-T
°C
Wind Press
QNH
hPa
Press
MSL
hPa
Rain since
9am
mm
Dir  Spd
km/h
Gust
km/h
Spd
kts
Gust
kts
22/11:30pm 17.3 13.3 6.5 49 5.3 SSW 17 20 9 11 1018.1 - 0.0
22/11:00pm 17.2 13.3 7.3 52 5.0 S 17 19 9 10 1018.0 - 0.0
22/10:30pm 17.4 13.6 7.7 53 4.9 SSW 17 20 9 11 1018.0 - 0.0
22/10:00pm 17.7 14.0 8.0 53 4.9 SSW 17 20 9 11 1018.0 - 0.0
22/09:30pm 18.3 14.7 8.3 52 5.1 SSW 17 20 9 11 1017.9 - 0.0
22/09:00pm 18.3 14.3 8.3 52 5.1 SSW 19 20 10 11 1017.7 1017.6 0.0
22/08:30pm 18.3 14.6 9.4 56 4.7 SSW 19 20 10 11 1017.4 - 0.0
22/08:00pm 18.3 15.1 8.6 53 5.0 S 15 17 8 9 1017.0 - 0.0
22/07:30pm 19.6 16.5 7.4 45 6.2 S 13 15 7 8 1016.5 - 0.0
22/07:00pm 19.7 18.8 6.1 41 6.8 CALM 0 0 0 0 1016.2 - 0.0
22/06:30pm 22.6 22.0 7.6 38 7.8 CALM 0 0 0 0 1015.9 - 0.0
22/06:00pm 23.6 23.0 7.3 35 8.5 CALM 0 0 0 0 1015.5 1015.4 0.0
22/05:30pm 25.3 22.9 7.0 31 9.6 E 9 9 5 5 1015.4 - 0.0
22/05:00pm 26.1 23.1 6.2 28 10.3 E 11 15 6 8 1015.1 - 0.0
22/04:30pm 26.4 22.9 5.4 26 10.8 E 13 17 7 9 1014.9 - 0.0
22/04:00pm 26.7 23.0 4.5 24 11.2 ESE 13 20 7 11 1014.9 - 0.0
22/03:30pm 26.5 22.1 4.9 25 11.0 E 17 24 9 13 1015.1 - 0.0
22/03:00pm 26.4 22.1 5.4 26 10.8 E 17 22 9 12 1015.2 1015.1 0.0
22/02:30pm 26.5 23.2 6.5 28 10.5 E 13 20 7 11 1015.4 - 0.0
22/02:00pm 25.6 21.9 6.3 29 10.0 E 15 20 8 11 1015.7 - 0.0
22/01:30pm 25.1 22.0 7.3 32 9.4 E 13 19 7 10 1016.0 - 0.0
22/01:00pm 24.9 21.8 8.8 36 8.7 E 15 19 8 10 1016.5 - 0.0
22/12:30pm 24.4 21.1 8.0 35 8.7 E 15 20 8 11 1017.0 - 0.0
22/12:00pm 23.7 20.1 9.7 41 7.6 ESE 19 26 10 14 1017.4 1017.3 0.0
22/11:30am 23.2 20.0 11.3 47 6.6 E 19 24 10 13 1017.8 - 0.0
22/11:00am 22.8 20.0 12.7 53 5.8 E 19 24 10 13 1018.3 - 0.0
22/10:30am 22.3 19.1 13.1 56 5.3 SE 22 28 12 15 1018.6 - 0.0
22/10:00am 21.9 18.9 13.8 60 4.7 SE 22 30 12 16 1018.6 - 0.0
22/09:30am 21.5 18.1 13.7 61 4.5 ESE 24 30 13 16 1018.6 - 0.0
22/09:00am 20.8 17.3 13.5 63 4.2 ESE 24 32 13 17 1018.5 1018.4 0.0
22/08:30am 20.3 17.7 13.7 66 3.8 SE 20 28 11 15 1018.4 - 0.0
22/08:00am 17.3 16.4 12.6 74 2.6 S 9 13 5 7 1018.1 - 0.0
22/07:30am 13.9 12.1 10.9 82 1.6 SW 11 13 6 7 1017.9 - 0.0
22/07:00am 11.4 8.6 8.6 83 1.4 SW 13 15 7 8 1017.6 - 0.0
22/06:30am 11.3 8.2 8.7 84 1.3 SSW 15 17 8 9 1017.3 - 0.0
22/06:00am 11.6 8.4 8.6 82 1.5 SSW 15 20 8 11 1016.9 1016.8 0.0
22/05:30am 12.6 10.3 9.1 79 1.8 SW 11 13 6 7 1016.5 - 0.0
22/05:00am 12.7 9.7 9.3 80 1.7 SW 15 17 8 9 1016.3 - 0.0
22/04:30am 13.2 10.6 9.3 77 2.0 SW 13 13 7 7 1016.1 - 0.0
22/04:00am 13.8 11.6 9.5 75 2.2 SW 11 13 6 7 1016.0 - 0.0
22/03:30am 14.1 12.4 9.9 76 2.2 SW 9 13 5 7 1015.8 - 0.0
22/03:00am 14.5 11.4 10.3 76 2.2 SSW 17 19 9 10 1015.6 1015.5 0.0
22/02:30am 15.3 12.6 10.5 73 2.5 SW 15 17 8 9 1015.7 - 0.0
22/02:00am 15.0 11.9 10.4 74 2.4 SW 17 19 9 10 1015.5 - 0.0
22/01:30am 14.7 11.9 10.1 74 2.4 SSW 15 17 8 9 1015.4 - 0.0
22/01:00am 15.4 13.1 10.4 72 2.6 SSW 13 17 7 9 1015.3 - 0.0
22/12:30am 16.1 13.5 10.6 70 2.9 SW 15 17 8 9 1015.2 - 0.0
22/12:00am 15.7 13.5 10.9 73 2.6 SW 13 15 7 8 1015.3 1015.2 0.0
 
Date/Time
WST
Temp
°C
App
Temp
°C
Dew
Point
°C
Rel
Hum
%
Delta-T
°C
Wind Press
QNH
hPa
Press
MSL
hPa
Rain since
9am
mm
Dir  Spd
km/h
Gust
km/h
Spd
kts
Gust
kts
21/11:30pm 15.7 13.5 10.7 72 2.7 SSW 13 15 7 8 1015.2 - 0.0
21/11:00pm 16.2 14.1 11.2 72 2.7 SSW 13 13 7 7 1015.2 - 0.0
21/10:30pm 17.3 15.0 11.6 69 3.1 SW 15 17 8 9 1015.2 - 0.0
21/10:00pm 18.2 15.6 12.0 67 3.4 SW 17 19 9 10 1015.2 - 0.0
21/09:30pm 18.0 15.4 12.0 68 3.3 SW 17 17 9 9 1015.2 - 0.0
21/09:00pm 18.1 16.3 12.1 68 3.3 SSW 13 15 7 8 1015.2 1015.1 0.0
21/08:30pm 19.2 17.5 12.5 65 3.7 SSW 13 17 7 9 1015.1 - 0.0
21/08:00pm 20.1 17.4 12.8 63 4.1 SW 19 24 10 13 1014.6 - 0.0
21/07:30pm 20.5 18.3 13.2 63 4.2 SSW 17 20 9 11 1014.2 - 0.0
21/07:00pm 21.2 18.5 13.4 61 4.5 SSW 20 24 11 13 1013.8 - 0.0
21/06:30pm 22.0 19.1 13.9 60 4.7 SSW 22 28 12 15 1013.4 - 0.0
21/06:00pm 22.9 19.3 13.1 54 5.6 SSW 24 35 13 19 1013.0 1012.9 0.0
21/05:30pm 24.0 19.2 12.9 50 6.4 SW 30 37 16 20 1012.7 - 0.0
21/05:00pm 25.1 20.2 12.7 46 7.2 SSW 30 41 16 22 1012.4 - 0.0
21/04:30pm 26.3 20.7 11.6 40 8.4 SSW 32 41 17 22 1012.0 - 0.0
21/04:00pm 28.0 23.5 10.2 33 10.0 SSW 24 32 13 17 1011.6 - 0.0
21/03:30pm 28.8 25.1 9.5 30 10.8 SW 19 28 10 15 1011.3 - 0.0
21/03:00pm 28.3 23.4 8.6 29 10.8 SW 24 32 13 17 1011.1 1011.0 0.0
21/02:30pm 28.5 24.9 8.2 28 11.1 W 17 28 9 15 1011.0 - 0.0
21/02:00pm 28.0 25.9 8.3 29 10.7 WSW 9 28 5 15 1011.4 - 0.0
21/01:30pm 27.7 23.7 11.7 37 9.2 SE 24 28 13 15 1011.6 - 0.0
21/01:00pm 25.8 22.0 12.3 43 7.8 E 24 30 13 16 1012.1 - 0.0
21/12:30pm 25.5 22.9 13.7 48 6.9 E 20 22 11 12 1012.4 - 0.0
21/12:00pm 25.3 22.6 14.7 51 6.3 E 22 30 12 16 1013.0 1012.9 0.0
21/11:30am 24.3 22.1 15.0 56 5.6 E 20 28 11 15 1013.4 - 0.0
21/11:00am 23.7 21.1 13.8 53 5.8 SE 20 28 11 15 1013.9 - 0.0
21/10:30am 23.2 20.5 13.4 54 5.7 SE 20 28 11 15 1014.3 - 0.0
21/10:00am 23.2 21.3 14.2 57 5.3 SE 17 22 9 12 1014.6 - 0.0
21/09:30am 22.3 20.5 14.4 61 4.6 SE 17 22 9 12 1014.6 - 0.0
21/09:00am 21.7 19.5 14.8 65 4.1 SSE 20 28 11 15 1014.4 1014.3 0.0
21/08:30am 20.3 18.3 14.0 67 3.6 S 17 20 9 11 1014.1 - 0.0
21/08:00am 19.0 16.7 13.0 68 3.4 S 17 22 9 12 1013.8 - 0.0
21/07:30am 16.3 14.2 12.3 77 2.2 SSW 15 19 8 10 1013.5 - 0.0
21/07:00am 15.8 13.6 12.0 78 2.1 SSW 15 19 8 10 1013.0 - 0.0
21/06:30am 15.3 12.6 11.7 79 1.9 SSW 17 22 9 12 1012.7 - 0.0
21/06:00am 14.7 12.4 11.7 82 1.6 SW 15 17 8 9 1012.4 1012.3 0.0
21/05:30am 15.1 12.8 11.9 81 1.7 SW 15 17 8 9 1012.2 - 0.0
21/05:00am 16.1 14.0 12.5 79 2.0 SW 15 15 8 8 1012.1 - 0.0
21/04:30am 15.5 13.4 12.4 82 1.7 SW 15 17 8 9 1011.9 - 0.0
21/04:00am 16.0 14.0 12.7 81 1.8 SW 15 15 8 8 1011.8 - 0.0
21/03:30am 16.7 15.2 13.2 80 2.0 SW 13 15 7 8 1011.7 - 0.0
21/03:00am 16.8 15.7 13.1 79 2.1 SW 11 15 6 8 1011.7 1011.6 0.0
21/02:30am 17.4 16.4 13.5 78 2.2 SW 11 13 6 7 1011.9 - 0.0
21/02:00am 17.9 16.6 13.8 77 2.3 SW 13 13 7 7 1012.2 - 0.0
21/01:30am 18.4 17.2 14.1 76 2.5 SW 13 15 7 8 1012.3 - 0.0
21/01:00am 19.0 17.9 14.3 74 2.7 SW 13 17 7 9 1012.3 - 0.0
21/12:30am 19.3 17.9 14.6 74 2.7 SW 15 19 8 10 1012.3 - 0.0
21/12:00am 19.2 17.5 14.7 75 2.6 SSW 17 19 9 10 1012.5 1012.4 0.0
 
Date/Time
WST
Temp
°C
App
Temp
°C
Dew
Point
°C
Rel
Hum
%
Delta-T
°C
Wind Press
QNH
hPa
Press
MSL
hPa
Rain since
9am
mm
Dir  Spd
km/h
Gust
km/h
Spd
kts
Gust
kts
20/11:30pm 19.8 18.1 14.8 73 2.9 SSW 17 19 9 10 1012.7 - 0.0
20/11:00pm 20.2 18.6 15.0 72 3.1 SSW 17 20 9 11 1012.9 - 0.0
20/10:30pm 20.7 18.5 14.8 69 3.5 SSW 20 28 11 15 1012.8 - 0.0
20/10:00pm 21.4 19.2 14.8 66 3.9 SW 20 26 11 14 1012.9 - 0.0
20/09:30pm 21.5 19.2 14.6 65 4.0 SW 20 28 11 15 1013.0 - 0.0
20/09:00pm 21.8 19.4 14.4 63 4.3 SW 20 26 11 14 1012.9 1012.8 0.0
20/08:30pm 21.8 19.7 14.7 64 4.2 SW 19 26 10 14 1013.0 - 0.0
20/08:00pm 21.7 19.4 14.1 62 4.4 SSW 19 26 10 14 1012.9 - 0.0
20/07:30pm 22.2 18.9 14.1 60 4.7 SSW 24 30 13 16 1012.5 - 0.0
20/07:00pm 22.5 19.7 13.3 56 5.3 SSW 20 30 11 16 1012.3 - 0.0
20/06:30pm 23.1 20.1 12.4 51 6.1 SSW 20 26 11 14 1011.9 - 0.0
20/06:00pm 24.0 19.2 11.7 46 7.0 SSW 28 33 15 18 1011.7 1011.6 0.0
20/05:30pm 25.3 20.0 11.1 41 8.0 SSW 30 39 16 21 1011.5 - 0.0
20/05:00pm 26.9 20.8 9.7 34 9.5 SW 32 39 17 21 1011.4 - 0.0
20/04:30pm 28.0 23.4 9.8 32 10.2 SW 24 30 13 16 1011.4 - 0.0
20/04:00pm 27.7 25.8 12.9 40 8.7 ENE 15 19 8 10 1011.2 - 0.0
20/03:30pm 27.9 25.4 13.4 40 8.6 ENE 19 24 10 13 1011.5 - 0.0

Other Formats:

Comma delimited format used in spreadsheet applications
http://www.bom.gov.au/fwo/IDW60801/IDW60801.94302.axf

JavaScript Object Notation format (JSON) in row-major order
http://www.bom.gov.au/fwo/IDW60801/IDW60801.94302.json